TimeCST,TemperatureF,Dew PointF,Humidity,Sea Level PressureIn,VisibilityMPH,Wind Direction,Wind SpeedMPH,Gust SpeedMPH,PrecipitationIn,Events,Conditions,WindDirDegrees,DateUTC
12:15 AM,20.8,9.3,61,30.02,10.0,South,5.8,-,N/A,,Overcast,170,2012-02-13 06:15:00
12:35 AM,21.4,9.5,60,30.01,10.0,SSE,6.9,-,N/A,,Overcast,160,2012-02-13 06:35:00
12:55 AM,22.1,10.0,60,30.00,10.0,South,6.9,-,N/A,,Overcast,180,2012-02-13 06:55:00
1:15 AM,22.5,10.2,59,30.00,10.0,South,6.9,-,N/A,,Overcast,180,2012-02-13 07:15:00
1:35 AM,23.0,10.4,59,29.99,10.0,South,10.4,-,N/A,,Overcast,180,2012-02-13 07:35:00
1:55 AM,23.7,10.8,58,29.97,10.0,South,10.4,-,N/A,,Overcast,180,2012-02-13 07:55:00
2:15 AM,24.4,10.4,55,29.97,10.0,South,12.7,17.3,N/A,,Overcast,180,2012-02-13 08:15:00
2:35 AM,24.8,10.4,54,29.97,10.0,South,13.8,-,N/A,,Overcast,190,2012-02-13 08:35:00
2:55 AM,24.6,10.8,56,29.96,10.0,South,11.5,-,N/A,,Overcast,190,2012-02-13 08:55:00
3:15 AM,24.4,13.6,64,29.95,7.0,SW,24.2,32.2,N/A,,Overcast,220,2012-02-13 09:15:00
3:35 AM,22.3,17.4,82,29.94,4.0,SW,17.3,23.0,N/A,,Overcast,220,2012-02-13 09:35:00
3:55 AM,21.2,19.4,93,29.94,1.2,SSW,11.5,-,N/A,,Overcast,210,2012-02-13 09:55:00
4:15 AM,21.0,19.9,96,29.93,0.5,SSW,11.5,-,N/A,,Overcast,200,2012-02-13 10:15:00
4:35 AM,21.2,20.1,96,29.92,0.8,SSW,11.5,-,0.01,,Overcast,200,2012-02-13 10:35:00
4:55 AM,20.8,19.9,96,29.91,2.5,South,9.2,-,0.01,,Overcast,180,2012-02-13 10:55:00
5:15 AM,20.8,19.9,96,29.90,2.0,South,10.4,-,N/A,,Overcast,170,2012-02-13 11:15:00
5:35 AM,20.8,20.1,97,29.90,2.0,South,10.4,-,0.01,,Overcast,180,2012-02-13 11:35:00
5:55 AM,21.0,20.3,97,29.89,1.8,South,10.4,-,0.01,,Overcast,180,2012-02-13 11:55:00
6:15 AM,21.2,20.3,96,29.88,1.5,South,11.5,-,N/A,,Overcast,170,2012-02-13 12:15:00
6:35 AM,21.2,20.3,96,29.87,1.8,South,12.7,-,0.01,,Overcast,170,2012-02-13 12:35:00
6:55 AM,21.2,20.3,96,29.87,1.5,South,11.5,-,0.01,,Overcast,170,2012-02-13 12:55:00
7:15 AM,21.2,20.7,98,29.87,1.2,South,12.7,-,N/A,,Overcast,170,2012-02-13 13:15:00
7:35 AM,21.4,20.8,98,29.86,1.0,South,13.8,-,N/A,,Overcast,170,2012-02-13 13:35:00
7:55 AM,21.7,21.2,98,29.86,0.8,South,13.8,-,N/A,,Overcast,170,2012-02-13 13:55:00
8:15 AM,21.9,21.2,97,29.85,1.0,South,12.7,-,N/A,,Overcast,170,2012-02-13 14:15:00
8:35 AM,22.1,21.2,96,29.84,0.8,SSE,12.7,-,N/A,,Overcast,160,2012-02-13 14:35:00
8:55 AM,22.1,21.2,96,29.84,1.0,SSE,11.5,-,0.01,,Overcast,160,2012-02-13 14:55:00
9:15 AM,22.5,21.6,96,29.84,1.0,South,12.7,-,N/A,,Overcast,170,2012-02-13 15:15:00
9:35 AM,22.6,21.7,96,29.83,1.8,South,11.5,-,N/A,,Overcast,170,2012-02-13 15:35:00
9:55 AM,23.0,21.9,96,29.83,3.0,South,13.8,-,N/A,,Overcast,170,2012-02-13 15:55:00
10:15 AM,23.2,22.1,96,29.82,5.0,South,15.0,-,N/A,,Overcast,170,2012-02-13 16:15:00
10:35 AM,23.5,22.1,94,29.81,4.0,South,13.8,-,N/A,,Overcast,170,2012-02-13 16:35:00
10:55 AM,23.7,22.3,94,29.81,1.8,South,12.7,-,N/A,,Overcast,170,2012-02-13 16:55:00
11:15 AM,23.9,22.6,95,29.80,1.8,South,11.5,-,N/A,,Overcast,170,2012-02-13 17:15:00
11:35 AM,23.9,22.8,96,29.79,1.0,South,11.5,-,N/A,,Overcast,170,2012-02-13 17:35:00
11:55 AM,24.4,23.0,94,29.78,0.8,South,10.4,-,N/A,,Overcast,170,2012-02-13 17:55:00
12:15 PM,24.4,23.0,94,29.77,1.0,South,11.5,-,0.01,,Overcast,170,2012-02-13 18:15:00
12:35 PM,24.8,23.7,96,29.76,1.2,South,10.4,-,0.01,,Overcast,180,2012-02-13 18:35:00
12:55 PM,25.5,24.1,94,29.75,3.0,South,10.4,-,0.01,,Overcast,190,2012-02-13 18:55:00
1:15 PM,26.2,24.4,93,29.75,10.0,SSW,10.4,-,0.01,,Overcast,200,2012-02-13 19:15:00
1:35 PM,26.4,24.6,93,29.74,5.0,SSW,11.5,-,0.01,,Overcast,200,2012-02-13 19:35:00
1:55 PM,26.4,25.0,94,29.73,2.0,SSW,9.2,-,0.01,,Overcast,200,2012-02-13 19:55:00
2:15 PM,26.6,25.5,96,29.72,2.5,SSW,10.4,-,N/A,,Overcast,200,2012-02-13 20:15:00
2:35 PM,26.6,25.7,96,29.72,2.0,SSW,9.2,-,N/A,,Overcast,210,2012-02-13 20:35:00
2:55 PM,26.6,25.7,96,29.72,3.0,SSW,8.1,-,N/A,,Overcast,210,2012-02-13 20:55:00
3:15 PM,26.6,25.7,96,29.72,4.0,SW,10.4,-,N/A,,Overcast,220,2012-02-13 21:15:00
3:35 PM,26.6,25.5,96,29.72,7.0,SW,8.1,-,N/A,,Overcast,220,2012-02-13 21:35:00
3:55 PM,26.6,25.7,96,29.72,7.0,SSW,6.9,-,N/A,,Overcast,210,2012-02-13 21:55:00
4:15 PM,26.6,25.7,96,29.71,10.0,SW,5.8,-,N/A,,Overcast,220,2012-02-13 22:15:00
4:35 PM,26.6,25.5,96,29.71,10.0,SW,5.8,-,N/A,,Overcast,230,2012-02-13 22:35:00
4:55 PM,26.6,25.7,96,29.71,7.0,SW,5.8,-,N/A,,Overcast,230,2012-02-13 22:55:00
5:15 PM,26.6,25.7,96,29.71,4.0,SW,4.6,-,N/A,,Overcast,230,2012-02-13 23:15:00
6:15 PM,26.2,25.7,98,29.72,5.0,Calm,Calm,-,N/A,,Overcast,0,2012-02-14 00:15:00
6:35 PM,26.1,25.7,99,29.72,5.0,West,3.5,-,N/A,,Overcast,260,2012-02-14 00:35:00
6:55 PM,25.7,25.7,100,29.72,5.0,Calm,Calm,-,N/A,,Overcast,0,2012-02-14 00:55:00
7:15 PM,25.7,25.7,100,29.72,5.0,Calm,Calm,-,N/A,,Overcast,0,2012-02-14 01:15:00
7:35 PM,25.7,25.5,99,29.72,5.0,Calm,Calm,-,N/A,,Overcast,0,2012-02-14 01:35:00
7:55 PM,25.7,25.7,100,29.72,5.0,Calm,Calm,-,N/A,,Overcast,0,2012-02-14 01:55:00
8:15 PM,25.3,25.3,100,29.72,4.0,Calm,Calm,-,N/A,,Overcast,0,2012-02-14 02:15:00
8:35 PM,25.3,25.3,100,29.72,4.0,Calm,Calm,-,N/A,,Overcast,0,2012-02-14 02:35:00
8:55 PM,25.3,25.3,100,29.72,3.0,Calm,Calm,-,N/A,,Overcast,0,2012-02-14 02:55:00
9:15 PM,24.8,24.8,100,29.72,3.0,SSW,3.5,-,N/A,,Overcast,210,2012-02-14 03:15:00
9:35 PM,24.3,24.3,100,29.72,2.5,SW,3.5,-,N/A,,Overcast,220,2012-02-14 03:35:00
9:55 PM,23.5,23.5,100,29.73,0.5,WSW,3.5,-,N/A,,Overcast,250,2012-02-14 03:55:00
10:15 PM,23.0,23.0,100,29.73,1.2,West,5.8,-,N/A,,Overcast,270,2012-02-14 04:15:00
10:35 PM,23.9,23.9,100,29.73,2.5,WSW,5.8,-,N/A,,Overcast,250,2012-02-14 04:35:00
10:55 PM,23.9,23.9,100,29.73,3.0,West,4.6,-,N/A,,Overcast,270,2012-02-14 04:55:00
11:15 PM,24.3,24.3,100,29.73,4.0,West,6.9,-,N/A,,Overcast,270,2012-02-14 05:15:00
11:55 PM,23.9,23.9,100,29.73,1.2,West,6.9,-,N/A,,Overcast,280,2012-02-14 05:55:00